createdAt,value
2019-04-04T00:02:07.722Z,98486.06
2019-04-04T00:04:35.379Z,98484.36
2019-04-04T00:07:03.044Z,98477.91
2019-04-04T00:09:32.842Z,98487.41
2019-04-04T00:12:00.066Z,98477.08
2019-04-04T00:14:27.767Z,98479.69
2019-04-04T00:16:55.620Z,98469.27
2019-04-04T00:19:23.278Z,98465.39
2019-04-04T00:21:50.944Z,98463.24
2019-04-04T00:24:18.643Z,98459.34
2019-04-04T00:26:46.376Z,98464.56
2019-04-04T00:29:16.964Z,98461.93
2019-04-04T00:31:43.393Z,98464.92
2019-04-04T00:34:13.562Z,98460.67
2019-04-04T00:36:40.536Z,98464.54
2019-04-04T00:39:09.476Z,98470.13
2019-04-04T00:41:37.683Z,98462.81
2019-04-04T00:44:05.340Z,98455.53
2019-04-04T00:46:33.055Z,98455.04
2019-04-04T00:49:00.829Z,98464.98
2019-04-04T00:51:28.596Z,98460.70
2019-04-04T00:53:56.259Z,98459.39
2019-04-04T00:56:23.920Z,98456.42
2019-04-04T00:58:52.059Z,98450.38
2019-04-04T01:01:20.355Z,98453.84
2019-04-04T01:03:48.089Z,98456.44
2019-04-04T01:06:15.743Z,98449.52
2019-04-04T01:08:43.723Z,98444.82
2019-04-04T01:11:11.386Z,98447.39
2019-04-04T01:13:39.035Z,98444.81
2019-04-04T01:16:07.043Z,98443.12
2019-04-04T01:18:36.701Z,98440.97
2019-04-04T01:21:04.123Z,98442.30
2019-04-04T01:23:31.777Z,98446.59
2019-04-04T01:26:01.234Z,98456.03
2019-04-04T01:28:28.819Z,98452.20
2019-04-04T01:30:56.480Z,98445.73
2019-04-04T01:33:24.429Z,98434.10
2019-04-04T01:35:53.947Z,98436.28
2019-04-04T01:38:21.544Z,98432.85
2019-04-04T01:40:49.205Z,98429.38
2019-04-04T01:43:16.859Z,98436.30
2019-04-04T01:45:44.935Z,98424.63
2019-04-04T01:48:12.767Z,98422.05
2019-04-04T01:50:40.425Z,98431.10
2019-04-04T01:53:08.096Z,98423.33
2019-04-04T01:55:36.120Z,98413.88
2019-04-04T01:58:03.909Z,98426.83
2019-04-04T02:00:31.555Z,98418.19
2019-04-04T02:02:59.209Z,98414.73
2019-04-04T02:05:27.570Z,98413.89
2019-04-04T02:07:55.433Z,98411.33
2019-04-04T02:10:23.093Z,98413.90
2019-04-04T02:12:50.771Z,98413.90
2019-04-04T02:15:18.423Z,98416.51
2019-04-04T02:17:46.088Z,98413.06
2019-04-04T02:20:13.739Z,98424.27
2019-04-04T02:22:41.480Z,98410.88
2019-04-04T02:25:09.251Z,98413.06
2019-04-04T02:27:37.875Z,98409.63
2019-04-04T02:30:06.156Z,98417.38
2019-04-04T02:32:33.930Z,98410.89
2019-04-04T02:35:01.631Z,98405.74
2019-04-04T02:37:29.331Z,98407.87
2019-04-04T02:39:57.161Z,98402.30
2019-04-04T02:42:25.013Z,98404.90
2019-04-04T02:44:52.735Z,98401.02
2019-04-04T02:47:20.388Z,98406.19
2019-04-04T02:49:48.252Z,98401.00
2019-04-04T02:52:15.991Z,98406.18
2019-04-04T02:54:43.665Z,98399.72
2019-04-04T02:57:11.357Z,98403.59
2019-04-04T02:59:39.064Z,98394.11
2019-04-04T03:02:06.724Z,98390.67
2019-04-04T03:04:34.494Z,98393.70
2019-04-04T03:07:02.230Z,98393.27
2019-04-04T03:09:29.958Z,98392.39
2019-04-04T03:11:57.619Z,98385.92
2019-04-04T03:14:25.268Z,98389.38
2019-04-04T03:16:56.369Z,98394.97
2019-04-04T03:19:22.340Z,98386.79
2019-04-04T03:21:50.086Z,98381.20
2019-04-04T03:24:17.740Z,98390.69
2019-04-04T03:26:45.388Z,98388.10
2019-04-04T03:29:13.049Z,98386.38
2019-04-04T03:31:40.736Z,98385.92
2019-04-04T03:34:11.741Z,98379.91
2019-04-04T03:36:38.058Z,98379.48
2019-04-04T03:39:06.831Z,98376.03
2019-04-04T03:41:35.827Z,98369.56
2019-04-04T03:44:03.940Z,98372.14
2019-04-04T03:46:37.649Z,98371.28
2019-04-04T03:49:01.352Z,98374.31
2019-04-04T03:51:29.060Z,98373.02
2019-04-04T03:53:59.020Z,98364.82
2019-04-04T03:56:26.962Z,98370.42
2019-04-04T03:58:54.612Z,98376.02
2019-04-04T04:01:22.269Z,98372.61
2019-04-04T04:03:54.745Z,98381.64
2019-04-04T04:06:20.176Z,98388.11
2019-04-04T04:08:47.836Z,98407.04
2019-04-04T04:11:15.481Z,98422.13
2019-04-04T04:13:43.172Z,98427.70
2019-04-04T04:16:10.898Z,98428.46
2019-04-04T04:18:38.603Z,98427.59
2019-04-04T04:21:09.849Z,98419.80
2019-04-04T04:23:35.871Z,98423.23
2019-04-04T04:26:08.315Z,98430.87
2019-04-04T04:28:32.887Z,98430.84
2019-04-04T04:31:00.545Z,98435.08
2019-04-04T04:33:29.384Z,98429.19
2019-04-04T04:35:57.707Z,98422.24
2019-04-04T04:38:26.963Z,98424.05
2019-04-04T04:40:54.944Z,98414.15
2019-04-04T04:43:22.678Z,98416.20
2019-04-04T04:45:50.776Z,98411.44
2019-04-04T04:48:18.501Z,98418.33
2019-04-04T04:50:46.139Z,98418.72
2019-04-04T04:53:13.788Z,98422.69
2019-04-04T04:55:41.424Z,98408.81
2019-04-04T04:58:10.455Z,98410.94
2019-04-04T05:00:38.467Z,98413.54
2019-04-04T05:03:06.132Z,98409.15
2019-04-04T05:05:33.819Z,98409.09
2019-04-04T05:08:01.565Z,98403.99
2019-04-04T05:10:29.301Z,98405.84
2019-04-04T05:12:57.010Z,98403.77
2019-04-04T05:15:24.710Z,98405.56
2019-04-04T05:17:52.485Z,98399.59
2019-04-04T05:20:20.117Z,98398.33
2019-04-04T05:22:47.824Z,98404.38
2019-04-04T05:25:15.545Z,98398.77
2019-04-04T05:27:43.199Z,98397.45
2019-04-04T05:30:10.886Z,98403.93
2019-04-04T05:32:38.571Z,98407.88
2019-04-04T05:35:06.231Z,98401.01
2019-04-04T05:37:33.911Z,98409.61
2019-04-04T05:40:01.636Z,98409.61
2019-04-04T05:42:32.673Z,98404.47
2019-04-04T05:44:58.651Z,98408.77
2019-04-04T05:47:26.518Z,98409.63
2019-04-04T05:49:54.206Z,98410.90
2019-04-04T05:52:21.961Z,98401.83
2019-04-04T05:54:49.975Z,98411.27
2019-04-04T05:57:19.758Z,98402.61
2019-04-04T05:59:47.061Z,98403.03
2019-04-04T06:02:14.745Z,98404.26
2019-04-04T06:04:42.388Z,98407.67
2019-04-04T06:07:10.035Z,98402.93
2019-04-04T06:09:37.697Z,98406.75
2019-04-04T06:12:05.343Z,98404.91
2019-04-04T06:14:32.996Z,98401.41
2019-04-04T06:17:00.640Z,98394.47
2019-04-04T06:19:28.298Z,98393.95
2019-04-04T06:21:55.943Z,98393.43
2019-04-04T06:24:25.165Z,98383.92
2019-04-04T06:26:53.009Z,98376.48
2019-04-04T06:29:20.668Z,98374.21
2019-04-04T06:31:48.340Z,98372.41
2019-04-04T06:34:16.047Z,98364.04
2019-04-04T06:36:43.781Z,98359.98
2019-04-04T06:39:11.575Z,98357.32
2019-04-04T06:41:39.239Z,98348.67
2019-04-04T06:44:06.968Z,98352.18
2019-04-04T06:46:34.686Z,98349.91
2019-04-04T06:49:04.242Z,98361.66
2019-04-04T06:51:31.730Z,98361.71
2019-04-04T06:53:59.703Z,98359.81
2019-04-04T06:56:27.521Z,98360.12
2019-04-04T06:58:55.172Z,98351.58
2019-04-04T07:03:52.472Z,98342.62
2019-04-04T07:06:20.335Z,98340.68
2019-04-04T07:08:48.031Z,98332.72
2019-04-04T07:11:21.516Z,98333.00
2019-04-04T07:13:45.129Z,98330.49
2019-04-04T07:16:12.816Z,98322.04
2019-04-04T07:18:40.984Z,98317.33
2019-04-04T07:21:09.912Z,98310.84
2019-04-04T07:23:37.589Z,98310.86
2019-04-04T07:26:05.235Z,98312.93
2019-04-04T07:28:32.884Z,98306.38
2019-04-04T07:31:01.594Z,98298.66
2019-04-04T07:33:29.890Z,98300.49
2019-04-04T07:35:57.549Z,98303.41
2019-04-04T07:38:26.623Z,98296.27
2019-04-04T07:40:54.635Z,98305.16
2019-04-04T07:43:22.298Z,98309.95
2019-04-04T07:45:49.944Z,98303.67
2019-04-04T07:48:18.459Z,98305.83
2019-04-04T07:50:47.182Z,98307.84
2019-04-04T07:53:14.901Z,98305.78
2019-04-04T07:55:42.925Z,98300.54
2019-04-04T07:58:10.674Z,98304.73
2019-04-04T08:00:38.353Z,98303.22
2019-04-04T08:03:06.099Z,98307.19
2019-04-04T08:05:33.761Z,98304.48
2019-04-04T08:08:01.413Z,98296.24
2019-04-04T08:10:29.061Z,98295.48
2019-04-04T08:12:56.932Z,98292.82
2019-04-04T08:15:24.584Z,98286.77
2019-04-04T08:17:52.243Z,98291.61
2019-04-04T08:20:20.012Z,98302.70
2019-04-04T08:22:47.654Z,98291.52
2019-04-04T08:25:15.307Z,98292.13
2019-04-04T08:27:42.973Z,98283.64
2019-04-04T08:30:10.624Z,98290.12
2019-04-04T08:32:38.272Z,98292.52
2019-04-04T08:35:05.931Z,98295.03
2019-04-04T08:37:33.591Z,98292.83
2019-04-04T08:40:01.237Z,98288.98
2019-04-04T08:42:28.884Z,98287.09
2019-04-04T08:44:56.531Z,98283.34
2019-04-04T08:47:24.195Z,98283.73
2019-04-04T08:49:51.855Z,98289.26
2019-04-04T08:52:20.870Z,98289.88
2019-04-04T08:54:48.753Z,98289.28
2019-04-04T08:57:16.396Z,98282.83
2019-04-04T08:59:44.066Z,98283.55
2019-04-04T09:02:11.723Z,98275.94
2019-04-04T09:04:39.435Z,98275.42
2019-04-04T09:07:07.076Z,98275.67
2019-04-04T09:09:34.978Z,98282.86
2019-04-04T09:12:02.859Z,98277.63
2019-04-04T09:14:30.521Z,98280.25
2019-04-04T09:16:58.289Z,98275.22
2019-04-04T09:19:26.133Z,98271.20
2019-04-04T09:21:53.779Z,98269.00
2019-04-04T09:24:21.549Z,98270.05
2019-04-04T09:26:49.398Z,98268.38
2019-04-04T09:29:17.228Z,98268.39
2019-04-04T09:31:44.954Z,98268.27
2019-04-04T09:34:12.607Z,98262.53
2019-04-04T09:36:40.262Z,98265.39
2019-04-04T09:39:07.944Z,98265.81
2019-04-04T09:41:35.801Z,98267.98
2019-04-04T09:44:06.028Z,98267.98
2019-04-04T09:46:32.911Z,98264.30
2019-04-04T09:49:00.551Z,98265.66
2019-04-04T09:51:28.216Z,98255.58
2019-04-04T09:53:55.953Z,98254.31
2019-04-04T09:56:23.617Z,98255.23
2019-04-04T09:58:51.259Z,98247.33
2019-04-04T10:01:18.907Z,98249.73
2019-04-04T10:03:46.555Z,98250.72
2019-04-04T10:06:14.219Z,98251.16
2019-04-04T10:08:41.879Z,98253.52
2019-04-04T10:11:09.612Z,98255.08
2019-04-04T10:13:37.654Z,98255.36
2019-04-04T10:16:05.322Z,98253.95
2019-04-04T10:18:33.033Z,98255.70
2019-04-04T10:21:11.214Z,98247.84
2019-04-04T10:23:30.125Z,98242.65
2019-04-04T10:25:57.783Z,98237.58
2019-04-04T10:28:25.463Z,98246.72
2019-04-04T10:30:53.137Z,98237.98
2019-04-04T10:33:20.799Z,98232.34
2019-04-04T10:35:48.455Z,98231.63
2019-04-04T10:38:16.152Z,98235.36
2019-04-04T10:40:43.877Z,98237.05
2019-04-04T10:43:11.528Z,98226.64
2019-04-04T10:45:39.193Z,98226.54
2019-04-04T10:48:06.841Z,98235.22
2019-04-04T10:50:34.496Z,98234.69
2019-04-04T10:53:02.496Z,98232.38
2019-04-04T10:55:30.135Z,98217.12
2019-04-04T10:57:57.783Z,98229.80
2019-04-04T11:00:25.428Z,98224.69
2019-04-04T11:02:53.090Z,98233.10
2019-04-04T11:05:20.830Z,98221.70
2019-04-04T11:07:48.578Z,98219.17
2019-04-04T11:10:16.303Z,98222.81
2019-04-04T11:12:44.023Z,98224.05
2019-04-04T11:15:11.675Z,98227.67
2019-04-04T11:17:39.326Z,98235.13
2019-04-04T11:20:06.996Z,98221.30
2019-04-04T11:22:34.711Z,98221.61
2019-04-04T11:25:02.388Z,98211.62
2019-04-04T11:27:30.104Z,98217.36
2019-04-04T11:29:57.755Z,98206.00
2019-04-04T11:32:25.419Z,98214.84
2019-04-04T11:34:53.728Z,98213.41
2019-04-04T11:37:21.614Z,98199.44
2019-04-04T11:39:54.904Z,98207.30
2019-04-04T11:42:18.663Z,98210.25
2019-04-04T11:44:46.304Z,98204.02
2019-04-04T11:47:13.974Z,98201.60
2019-04-04T11:49:41.631Z,98200.47
2019-04-04T11:52:09.281Z,98195.22
2019-04-04T11:54:56.478Z,98187.98
2019-04-04T11:57:24.153Z,98192.39
2019-04-04T11:59:51.882Z,98198.12
2019-04-04T12:02:19.550Z,98197.66
2019-04-04T12:04:47.196Z,98194.17
2019-04-04T12:07:14.840Z,98196.33
2019-04-04T12:09:42.495Z,98197.98
2019-04-04T12:12:10.159Z,98200.27
2019-04-04T12:14:37.823Z,98195.70
2019-04-04T12:17:05.466Z,98192.30
2019-04-04T12:19:33.135Z,98199.38
2019-04-04T12:22:00.790Z,98188.77
2019-04-04T12:24:28.447Z,98185.17
2019-04-04T12:26:56.106Z,98171.31
2019-04-04T12:29:23.763Z,98177.66
2019-04-04T12:31:51.437Z,98186.56
2019-04-04T12:34:19.102Z,98176.56
2019-04-04T12:36:46.778Z,98180.65
2019-04-04T12:39:14.430Z,98180.11
2019-04-04T12:41:43.013Z,98176.06
2019-04-04T12:44:10.668Z,98186.44
2019-04-04T12:46:38.320Z,98186.94
2019-04-04T12:49:05.982Z,98188.70
2019-04-04T12:51:33.637Z,98188.85
2019-04-04T12:54:03.220Z,98190.64
2019-04-04T12:56:30.874Z,98188.58
2019-04-04T13:01:24.449Z,98187.34
2019-04-04T13:03:52.111Z,98197.16
2019-04-04T13:06:19.785Z,98190.22
2019-04-04T13:08:47.458Z,98189.88
2019-04-04T13:11:15.099Z,98198.47
2019-04-04T13:13:42.783Z,98187.81
2019-04-04T13:16:10.448Z,98189.13
2019-04-04T13:18:38.095Z,98186.95
2019-04-04T13:21:05.744Z,98184.73
2019-04-04T13:23:33.417Z,98186.41
2019-04-04T13:26:01.089Z,98180.58
2019-04-04T13:28:28.751Z,98181.28
2019-04-04T13:30:56.399Z,98177.28
2019-04-04T13:33:24.064Z,98176.74
2019-04-04T13:35:51.719Z,98166.58
2019-04-04T13:38:19.405Z,98174.63
2019-04-04T13:40:47.060Z,98162.64
2019-04-04T13:43:14.723Z,98167.00
2019-04-04T13:45:42.379Z,98163.70
2019-04-04T13:48:10.694Z,98158.00
2019-04-04T13:50:39.407Z,98164.66
2019-04-04T13:53:07.151Z,98163.50
2019-04-04T13:55:34.802Z,98171.43
2019-04-04T13:58:02.491Z,98170.77
2019-04-04T14:00:30.151Z,98169.31
2019-04-04T14:02:57.812Z,98165.12
2019-04-04T14:05:25.482Z,98167.69
2019-04-04T14:07:53.139Z,98156.58
2019-04-04T14:10:20.808Z,98164.09
2019-04-04T14:12:48.456Z,98164.92
2019-04-04T14:15:16.104Z,98156.58
2019-04-04T14:17:44.234Z,98155.06
2019-04-04T14:20:12.006Z,98144.09
2019-04-04T14:22:39.665Z,98152.89
2019-04-04T14:25:07.332Z,98136.58
2019-04-04T14:27:34.992Z,98150.05
2019-04-04T14:30:02.644Z,98150.91
2019-04-04T14:32:30.308Z,98146.67
2019-04-04T14:34:57.963Z,98143.19
2019-04-04T14:37:25.611Z,98137.08
2019-04-04T14:39:53.276Z,98135.91
2019-04-04T14:42:21.015Z,98137.62
2019-04-04T14:44:48.666Z,98140.66
2019-04-04T14:47:16.900Z,98138.33
2019-04-04T14:49:45.828Z,98131.42
2019-04-04T14:52:13.803Z,98130.80
2019-04-04T14:57:07.364Z,98124.39
2019-04-04T14:59:35.064Z,98118.73
2019-04-04T15:02:02.718Z,98118.39
2019-04-04T15:04:30.387Z,98111.99
2019-04-04T15:06:58.024Z,98111.99
2019-04-04T15:09:25.677Z,98134.71
2019-04-04T15:11:53.322Z,98133.75
2019-04-04T15:14:20.988Z,98130.67
2019-04-04T15:16:48.626Z,98136.05
2019-04-04T15:19:16.327Z,98131.77
2019-04-04T15:21:43.989Z,98129.93
2019-04-04T15:24:11.655Z,98131.70
2019-04-04T15:26:39.328Z,98125.99
2019-04-04T15:29:07.107Z,98131.78
2019-04-04T15:31:34.759Z,98133.89
2019-04-04T15:34:02.428Z,98143.61
2019-04-04T15:36:30.090Z,98140.33
2019-04-04T15:38:57.755Z,98144.92
2019-04-04T15:41:36.359Z,98143.59
2019-04-04T15:43:55.227Z,98142.53
2019-04-04T15:46:22.887Z,98140.70
2019-04-04T15:48:50.556Z,98149.30
2019-04-04T15:51:18.236Z,98146.11
2019-04-04T15:53:45.900Z,98146.88
2019-04-04T15:56:13.568Z,98151.27
2019-04-04T15:58:41.220Z,98150.16
2019-04-04T16:01:08.863Z,98151.53
2019-04-04T16:03:36.548Z,98152.59
2019-04-04T16:06:04.207Z,98156.24
2019-04-04T16:08:31.869Z,98156.65
2019-04-04T16:10:59.828Z,98161.36
2019-04-04T16:13:27.710Z,98165.25
2019-04-04T16:15:55.351Z,98168.16
2019-04-04T16:18:23.007Z,98162.32
2019-04-04T16:20:50.685Z,98175.34
2019-04-04T16:23:18.332Z,98161.64
2019-04-04T16:25:45.987Z,98164.94
2019-04-04T16:28:13.654Z,98174.80
2019-04-04T16:30:41.327Z,98171.77
2019-04-04T16:33:09.075Z,98178.28
2019-04-04T16:35:36.737Z,98180.55
2019-04-04T16:38:04.404Z,98187.19
2019-04-04T16:40:32.051Z,98182.38
2019-04-04T16:42:59.704Z,98187.80
2019-04-04T16:45:27.366Z,98195.34
2019-04-04T16:47:55.031Z,98195.29
2019-04-04T16:50:22.695Z,98189.48
2019-04-04T16:52:50.371Z,98194.56
2019-04-04T16:55:18.023Z,98198.62
2019-04-04T16:57:45.693Z,98200.27
2019-04-04T17:00:13.350Z,98198.27
2019-04-04T17:02:41.025Z,98201.41
2019-04-04T17:05:10.962Z,98204.97
2019-04-04T17:07:38.021Z,98208.25
2019-04-04T17:10:05.695Z,98209.47
2019-04-04T17:12:33.345Z,98207.88
2019-04-04T17:15:00.998Z,98211.52
2019-04-04T17:17:28.663Z,98215.19
2019-04-04T17:19:56.336Z,98210.07
2019-04-04T17:22:23.996Z,98221.56
2019-04-04T17:24:51.650Z,98222.42
2019-04-04T17:27:19.309Z,98219.76
2019-04-04T17:29:47.493Z,98224.08
2019-04-04T17:32:15.631Z,98222.81
2019-04-04T17:34:43.402Z,98228.20
2019-04-04T17:37:11.580Z,98219.16
2019-04-04T17:39:39.829Z,98236.92
2019-04-04T17:42:07.743Z,98237.17
2019-04-04T17:44:35.531Z,98241.96
2019-04-04T17:47:03.241Z,98238.89
2019-04-04T17:49:30.967Z,98244.53
2019-04-04T17:51:58.626Z,98241.91
2019-04-04T17:54:26.740Z,98239.59
2019-04-04T17:56:54.878Z,98245.61
2019-04-04T17:59:22.624Z,98248.14
2019-04-04T18:01:51.307Z,98256.47
2019-04-04T18:04:18.967Z,98255.27
2019-04-04T18:06:46.619Z,98260.29
2019-04-04T18:09:14.280Z,98268.41
2019-04-04T18:11:41.944Z,98269.99
2019-04-04T18:14:09.619Z,98274.42
2019-04-04T18:16:37.272Z,98278.13
2019-04-04T18:19:05.007Z,98283.59
2019-04-04T18:21:32.662Z,98292.52
2019-04-04T18:24:00.323Z,98291.69
2019-04-04T18:26:28.023Z,98286.37
2019-04-04T18:28:55.714Z,98294.98
2019-04-04T18:31:23.389Z,98298.80
2019-04-04T18:33:51.060Z,98298.61
2019-04-04T18:36:18.702Z,98301.20
2019-04-04T18:38:46.373Z,98308.47
2019-04-04T18:41:14.056Z,98316.80
2019-04-04T18:43:41.708Z,98318.28
2019-04-04T18:46:09.376Z,98320.98
2019-04-04T18:48:37.036Z,98321.92
2019-04-04T18:51:04.699Z,98317.35
2019-04-04T18:53:32.357Z,98327.32
2019-04-04T18:56:00.779Z,98318.63
2019-04-04T18:58:28.559Z,98325.28
2019-04-04T19:00:56.223Z,98327.30
2019-04-04T19:03:23.941Z,98324.47
2019-04-04T19:05:51.596Z,98324.25
2019-04-04T19:08:19.259Z,98317.48
2019-04-04T19:10:47.022Z,98312.64
2019-04-04T19:13:14.767Z,98313.61
2019-04-04T19:15:42.509Z,98321.44
2019-04-04T19:18:10.151Z,98326.83
2019-04-04T19:20:37.807Z,98323.77
2019-04-04T19:23:05.573Z,98326.66
2019-04-04T19:25:33.275Z,98325.65
2019-04-04T19:28:01.076Z,98331.16
2019-04-04T19:30:28.735Z,98333.13
2019-04-04T19:32:56.392Z,98336.65
2019-04-04T19:35:24.057Z,98340.62
2019-04-04T19:38:00.020Z,98349.77
2019-04-04T19:40:21.324Z,98357.89
2019-04-04T19:42:49.066Z,98352.42
2019-04-04T19:45:16.726Z,98351.18
2019-04-04T19:47:44.463Z,98354.47
2019-04-04T19:50:12.111Z,98363.63
2019-04-04T19:52:39.812Z,98358.56
2019-04-04T19:55:07.484Z,98360.22
2019-04-04T19:57:35.217Z,98368.23
2019-04-04T20:00:02.875Z,98360.05
2019-04-04T20:02:30.538Z,98364.05
2019-04-04T20:04:58.199Z,98367.64
2019-04-04T20:07:25.875Z,98368.31
2019-04-04T20:09:53.547Z,98377.77
